Huvudsida
METAR-TAF:

METAR-TAF

Flygplatser :

Victoria, Mahé, Seychellerna

latitud: 04-40S, longitud: 055-31E, höjd: 3 m

Aktuellt väderrapport

Denna rapport gjordes för 56 minuter sedan, klockan 09:00 UTC
Vind 14 kt från ost/sydost
Temperatur 27°C
Fuktighet 79%
Tryck 1012 hPa
Sikt 10 km eller mer
Få moln på en höjd av 2000 ft
Spridda moln på en höjd av 4500 ft

METAR: FSIA 190900Z 12014KT 9999 R13///// FEW020 SCT045 27/23 Q1012 NOSIG

Tid: 13:56 (09:56 UTC)

Väderprognos

Denna rapport gjordes för 4 timmar och 52 minuter sedan, klockan 05:04 UTC
Prognos gäller från 19 kl. 06 UTC till 20 kl. 06 UTC
Vind 12 kt från sydost i byarna ända upp till 22 kt
Sikt 10 km eller mer
Spridda moln på en höjd av 2200 ft
Sannolikhet 40% :
Temporärt
från 19 kl. 12 UTC till 19 kl. 18 UTC
Brutna moln på en höjd av 1600 ft
lätta regnskurar

TAF: FSIA 190504Z 1906/2006 13012G22KT 9999 SCT022 PROB40 TEMPO 1912/1918 -SHRA BKN016

Aktuella väderrapporter och prognoser från 4000 flygplatser (METAR- och TAF-rapporter).

De tillgängliga stationerna syns som gula och röda prickar på kartan.

För musen över prickarna för att se namnen på stationerna.

Klicka sedan för att få väderrapporter och prognoser.

För att ändra kartan: Klicka på de gröna knapparna med ett svart kors på för att zooma in; den gröna knappen med ett streck på för att zooma ut; eller på de gröna pilarna för angränsande kartor.


METAR-TAF: